sensor_id;sensor_type;location;lat;lon;timestamp;pressure;altitude;pressure_sealevel;temperature;humidity
30682;BME280;17439;48.092;11.842;2023-04-26T00:00:30;95321.09;;;8.46;72.57
30682;BME280;17439;48.092;11.842;2023-04-26T00:02:57;95320.47;;;8.49;72.48
30682;BME280;17439;48.092;11.842;2023-04-26T00:05:24;95323.19;;;8.49;72.63
30682;BME280;17439;48.092;11.842;2023-04-26T00:07:50;95315.91;;;8.50;72.66
30682;BME280;17439;48.092;11.842;2023-04-26T00:10:17;95321.78;;;8.52;72.62
30682;BME280;17439;48.092;11.842;2023-04-26T00:12:44;95319.09;;;8.52;72.64
30682;BME280;17439;48.092;11.842;2023-04-26T00:15:10;95322.28;;;8.54;72.60
30682;BME280;17439;48.092;11.842;2023-04-26T00:17:37;95319.28;;;8.56;72.65
30682;BME280;17439;48.092;11.842;2023-04-26T00:20:04;95317.41;;;8.56;72.67
30682;BME280;17439;48.092;11.842;2023-04-26T00:22:31;95315.47;;;8.57;72.66
30682;BME280;17439;48.092;11.842;2023-04-26T00:25:00;95319.81;;;8.58;72.61
30682;BME280;17439;48.092;11.842;2023-04-26T00:27:27;95315.19;;;8.58;72.78
30682;BME280;17439;48.092;11.842;2023-04-26T00:29:53;95319.50;;;8.59;72.69
30682;BME280;17439;48.092;11.842;2023-04-26T00:32:20;95318.69;;;8.59;72.77
30682;BME280;17439;48.092;11.842;2023-04-26T00:34:47;95315.69;;;8.60;72.92
30682;BME280;17439;48.092;11.842;2023-04-26T00:37:16;95316.19;;;8.62;73.07
30682;BME280;17439;48.092;11.842;2023-04-26T00:39:42;95309.66;;;8.63;72.99
30682;BME280;17439;48.092;11.842;2023-04-26T00:42:09;95317.19;;;8.66;73.14
30682;BME280;17439;48.092;11.842;2023-04-26T00:44:36;95318.31;;;8.65;73.22
30682;BME280;17439;48.092;11.842;2023-04-26T00:47:02;95319.88;;;8.66;73.01
30682;BME280;17439;48.092;11.842;2023-04-26T00:49:29;95323.06;;;8.68;72.80
30682;BME280;17439;48.092;11.842;2023-04-26T00:51:56;95323.06;;;8.68;72.63
30682;BME280;17439;48.092;11.842;2023-04-26T00:54:23;95320.38;;;8.68;72.62
30682;BME280;17439;48.092;11.842;2023-04-26T00:56:50;95325.28;;;8.66;72.53
30682;BME280;17439;48.092;11.842;2023-04-26T00:59:17;95324.50;;;8.66;72.62
30682;BME280;17439;48.092;11.842;2023-04-26T01:01:44;95322.88;;;8.65;72.58
30682;BME280;17439;48.092;11.842;2023-04-26T01:04:11;95326.19;;;8.62;72.32
30682;BME280;17439;48.092;11.842;2023-04-26T01:06:38;95326.47;;;8.60;72.04
30682;BME280;17439;48.092;11.842;2023-04-26T01:09:05;95325.19;;;8.58;72.21
30682;BME280;17439;48.092;11.842;2023-04-26T01:11:33;95326.59;;;8.55;72.15
30682;BME280;17439;48.092;11.842;2023-04-26T01:14:01;95320.69;;;8.53;72.31
30682;BME280;17439;48.092;11.842;2023-04-26T01:16:28;95322.88;;;8.51;72.43
30682;BME280;17439;48.092;11.842;2023-04-26T01:18:55;95319.88;;;8.52;72.55
30682;BME280;17439;48.092;11.842;2023-04-26T01:21:23;95319.09;;;8.52;72.56
30682;BME280;17439;48.092;11.842;2023-04-26T01:23:50;95322.09;;;8.50;72.62
30682;BME280;17439;48.092;11.842;2023-04-26T01:26:17;95323.19;;;8.49;72.77
30682;BME280;17439;48.092;11.842;2023-04-26T01:28:45;95324.78;;;8.50;72.92
30682;BME280;17439;48.092;11.842;2023-04-26T01:31:12;95323.69;;;8.51;73.04
30682;BME280;17439;48.092;11.842;2023-04-26T01:33:38;95323.41;;;8.53;73.17
30682;BME280;17439;48.092;11.842;2023-04-26T01:36:08;95328.81;;;8.53;72.24
30682;BME280;17439;48.092;11.842;2023-04-26T01:38:35;95330.91;;;8.56;73.24
30682;BME280;17439;48.092;11.842;2023-04-26T01:41:02;95335.19;;;8.57;73.24
30682;BME280;17439;48.092;11.842;2023-04-26T01:43:30;95329.50;;;8.59;72.83
30682;BME280;17439;48.092;11.842;2023-04-26T01:45:57;95334.88;;;8.59;73.04
30682;BME280;17439;48.092;11.842;2023-04-26T01:48:27;95341.91;;;8.60;72.88
30682;BME280;17439;48.092;11.842;2023-04-26T01:50:54;95338.13;;;8.61;72.69
30682;BME280;17439;48.092;11.842;2023-04-26T01:53:21;95335.72;;;8.59;72.68
30682;BME280;17439;48.092;11.842;2023-04-26T01:55:47;95336.50;;;8.60;72.52
30682;BME280;17439;48.092;11.842;2023-04-26T01:58:14;95341.13;;;8.59;72.49
30682;BME280;17439;48.092;11.842;2023-04-26T02:00:40;95340.59;;;8.57;72.07
30682;BME280;17439;48.092;11.842;2023-04-26T02:03:09;95338.91;;;8.47;70.27
30682;BME280;17439;48.092;11.842;2023-04-26T02:05:36;95329.91;;;8.52;72.36
30682;BME280;17439;48.092;11.842;2023-04-26T02:08:04;95333.78;;;8.46;70.22
30682;BME280;17439;48.092;11.842;2023-04-26T02:10:30;95331.28;;;8.49;72.36
30682;BME280;17439;48.092;11.842;2023-04-26T02:12:57;95333.69;;;8.51;72.68
30682;BME280;17439;48.092;11.842;2023-04-26T02:15:24;95342.91;;;8.50;72.46
30682;BME280;17439;48.092;11.842;2023-04-26T02:17:50;95340.22;;;8.50;72.60
30682;BME280;17439;48.092;11.842;2023-04-26T02:20:19;95346.22;;;8.47;72.22
30682;BME280;17439;48.092;11.842;2023-04-26T02:22:45;95343.50;;;8.47;72.36
30682;BME280;17439;48.092;11.842;2023-04-26T02:25:13;95342.47;;;8.43;72.04
30682;BME280;17439;48.092;11.842;2023-04-26T02:27:40;95344.38;;;8.42;72.03
30682;BME280;17439;48.092;11.842;2023-04-26T02:30:07;95344.66;;;8.41;71.83
30682;BME280;17439;48.092;11.842;2023-04-26T02:32:34;95343.66;;;8.36;71.77
30682;BME280;17439;48.092;11.842;2023-04-26T02:35:01;95350.47;;;8.34;71.53
30682;BME280;17439;48.092;11.842;2023-04-26T02:37:27;95348.66;;;8.29;71.49
30682;BME280;17439;48.092;11.842;2023-04-26T02:39:54;95341.16;;;8.26;71.40
30682;BME280;17439;48.092;11.842;2023-04-26T02:42:21;95336.34;;;8.23;71.64
30682;BME280;17439;48.092;11.842;2023-04-26T02:44:48;95337.25;;;8.18;71.53
30682;BME280;17439;48.092;11.842;2023-04-26T02:47:15;95335.13;;;8.15;71.60
30682;BME280;17439;48.092;11.842;2023-04-26T02:49:42;95337.84;;;8.15;71.65
30682;BME280;17439;48.092;11.842;2023-04-26T02:52:08;95327.63;;;8.12;71.92
30682;BME280;17439;48.092;11.842;2023-04-26T02:54:36;95337.16;;;8.10;71.77
30682;BME280;17439;48.092;11.842;2023-04-26T02:57:03;95331.50;;;8.06;71.63
30682;BME280;17439;48.092;11.842;2023-04-26T02:59:29;95335.94;;;8.02;71.58
30682;BME280;17439;48.092;11.842;2023-04-26T03:01:56;95339.81;;;7.96;71.35
30682;BME280;17439;48.092;11.842;2023-04-26T03:04:23;95340.09;;;7.94;71.63
30682;BME280;17439;48.092;11.842;2023-04-26T03:06:49;95332.09;;;7.89;71.55
30682;BME280;17439;48.092;11.842;2023-04-26T03:09:16;95342.38;;;7.87;71.56
30682;BME280;17439;48.092;11.842;2023-04-26T03:11:43;95341.38;;;7.83;71.64
30682;BME280;17439;48.092;11.842;2023-04-26T03:14:11;95342.47;;;7.82;72.01
30682;BME280;17439;48.092;11.842;2023-04-26T03:16:41;95351.69;;;7.81;71.13
30682;BME280;17439;48.092;11.842;2023-04-26T03:19:08;95347.66;;;7.78;71.99
30682;BME280;17439;48.092;11.842;2023-04-26T03:21:37;95343.06;;;7.79;72.02
30682;BME280;17439;48.092;11.842;2023-04-26T03:24:04;95343.06;;;7.79;71.96
30682;BME280;17439;48.092;11.842;2023-04-26T03:26:30;95342.56;;;7.77;71.92
30682;BME280;17439;48.092;11.842;2023-04-26T03:28:58;95347.16;;;7.76;72.06
30682;BME280;17439;48.092;11.842;2023-04-26T03:31:27;95350.16;;;7.75;71.36
30682;BME280;17439;48.092;11.842;2023-04-26T03:33:53;95353.94;;;7.74;71.89
30682;BME280;17439;48.092;11.842;2023-04-26T03:36:20;95350.16;;;7.75;72.02
30682;BME280;17439;48.092;11.842;2023-04-26T03:38:47;95356.63;;;7.74;72.07
30682;BME280;17439;48.092;11.842;2023-04-26T03:41:16;95351.53;;;7.72;72.05
30682;BME280;17439;48.092;11.842;2023-04-26T03:43:43;95360.72;;;7.71;72.15
30682;BME280;17439;48.092;11.842;2023-04-26T03:46:10;95363.69;;;7.70;72.06
30682;BME280;17439;48.092;11.842;2023-04-26T03:48:36;95361.00;;;7.70;72.05
30682;BME280;17439;48.092;11.842;2023-04-26T03:51:03;95362.91;;;7.69;72.26
30682;BME280;17439;48.092;11.842;2023-04-26T03:53:30;95369.41;;;7.68;72.42
30682;BME280;17439;48.092;11.842;2023-04-26T03:56:00;95373.72;;;7.69;71.84
30682;BME280;17439;48.092;11.842;2023-04-26T03:58:29;95364.53;;;7.70;72.50
30682;BME280;17439;48.092;11.842;2023-04-26T04:00:55;95366.09;;;7.71;72.59
30682;BME280;17439;48.092;11.842;2023-04-26T04:03:23;95368.50;;;7.73;72.61
30682;BME280;17439;48.092;11.842;2023-04-26T04:05:53;95368.50;;;7.73;72.72
30682;BME280;17439;48.092;11.842;2023-04-26T04:08:20;95363.13;;;7.73;72.56
30682;BME280;17439;48.092;11.842;2023-04-26T04:10:46;95362.81;;;7.74;72.66
30682;BME280;17439;48.092;11.842;2023-04-26T04:13:13;95363.66;;;7.75;72.64
30682;BME280;17439;48.092;11.842;2023-04-26T04:15:40;95365.22;;;7.76;72.92
30682;BME280;17439;48.092;11.842;2023-04-26T04:18:07;95368.16;;;7.79;72.80
30682;BME280;17439;48.092;11.842;2023-04-26T04:20:34;95361.94;;;7.79;72.79
30682;BME280;17439;48.092;11.842;2023-04-26T04:23:00;95367.88;;;7.81;72.67
30682;BME280;17439;48.092;11.842;2023-04-26T04:25:28;95382.66;;;7.84;72.81
30682;BME280;17439;48.092;11.842;2023-04-26T04:27:58;95377.56;;;7.82;72.35
30682;BME280;17439;48.092;11.842;2023-04-26T04:30:24;95371.56;;;7.85;72.64
30682;BME280;17439;48.092;11.842;2023-04-26T04:32:51;95380.97;;;7.88;72.67
30682;BME280;17439;48.092;11.842;2023-04-26T04:35:18;95382.56;;;7.89;72.29
30682;BME280;17439;48.092;11.842;2023-04-26T04:37:46;95387.16;;;7.88;72.17
30682;BME280;17439;48.092;11.842;2023-04-26T04:40:13;95392.56;;;7.88;72.23
30682;BME280;17439;48.092;11.842;2023-04-26T04:42:42;95387.16;;;7.88;72.17
30682;BME280;17439;48.092;11.842;2023-04-26T04:45:09;95399.28;;;7.91;72.29
30682;BME280;17439;48.092;11.842;2023-04-26T04:47:37;95389.88;;;7.88;72.23
30682;BME280;17439;48.092;11.842;2023-04-26T04:50:05;95391.78;;;7.88;72.52
30682;BME280;17439;48.092;11.842;2023-04-26T04:52:33;95392.56;;;7.88;72.84
30682;BME280;17439;48.092;11.842;2023-04-26T04:55:00;95387.16;;;7.88;72.62
30682;BME280;17439;48.092;11.842;2023-04-26T04:57:27;95396.06;;;7.89;72.72
30682;BME280;17439;48.092;11.842;2023-04-26T04:59:54;95395.28;;;7.88;72.31
30682;BME280;17439;48.092;11.842;2023-04-26T05:02:21;95401.16;;;7.90;72.50
30682;BME280;17439;48.092;11.842;2023-04-26T05:04:48;95399.28;;;7.91;72.66
30682;BME280;17439;48.092;11.842;2023-04-26T05:07:15;95401.69;;;7.92;72.78
30682;BME280;17439;48.092;11.842;2023-04-26T05:09:45;95409.50;;;7.94;72.58
30682;BME280;17439;48.092;11.842;2023-04-26T05:12:12;95411.91;;;7.95;72.77
30682;BME280;17439;48.092;11.842;2023-04-26T05:14:39;95417.06;;;7.92;72.45
30682;BME280;17439;48.092;11.842;2023-04-26T05:17:06;95416.47;;;7.95;72.67
30682;BME280;17439;48.092;11.842;2023-04-26T05:19:33;95415.41;;;7.96;72.72
30682;BME280;17439;48.092;11.842;2023-04-26T05:22:00;95423.78;;;7.94;72.58
30682;BME280;17439;48.092;11.842;2023-04-26T05:24:30;95428.09;;;7.95;70.76
30682;BME280;17439;48.092;11.842;2023-04-26T05:26:58;95424.78;;;7.98;72.78
30682;BME280;17439;48.092;11.842;2023-04-26T05:29:40;95423.69;;;7.99;73.10
30682;BME280;17439;48.092;11.842;2023-04-26T05:32:45;95423.13;;;8.03;73.09
30682;BME280;17439;48.092;11.842;2023-04-26T05:35:34;95427.94;;;8.06;73.46
30682;BME280;17439;48.092;11.842;2023-04-26T05:38:00;95429.25;;;8.08;73.47
30682;BME280;17439;48.092;11.842;2023-04-26T05:40:28;95437.06;;;8.10;73.60
30682;BME280;17439;48.092;11.842;2023-04-26T05:42:55;95435.34;;;8.14;73.72
30682;BME280;17439;48.092;11.842;2023-04-26T05:45:22;95429.34;;;8.17;73.89
30682;BME280;17439;48.092;11.842;2023-04-26T05:47:49;95435.25;;;8.19;73.76
30682;BME280;17439;48.092;11.842;2023-04-26T05:50:16;95444.09;;;8.25;74.37
30682;BME280;17439;48.092;11.842;2023-04-26T05:52:43;95437.81;;;8.29;74.13
30682;BME280;17439;48.092;11.842;2023-04-26T05:55:09;95435.78;;;8.35;74.42
30682;BME280;17439;48.092;11.842;2023-04-26T05:57:36;95441.44;;;8.39;74.19
30682;BME280;17439;48.092;11.842;2023-04-26T06:00:03;95442.97;;;8.45;74.32
30682;BME280;17439;48.092;11.842;2023-04-26T06:02:39;95445.59;;;8.50;74.55
30682;BME280;17439;48.092;11.842;2023-04-26T06:05:11;95447.41;;;8.55;74.27
30682;BME280;17439;48.092;11.842;2023-04-26T06:07:38;95438.69;;;8.58;74.58
30682;BME280;17439;48.092;11.842;2023-04-26T06:10:05;95454.03;;;8.62;74.46
30682;BME280;17439;48.092;11.842;2023-04-26T06:12:32;95449.91;;;8.65;74.28
30682;BME280;17439;48.092;11.842;2023-04-26T06:14:59;95449.59;;;8.66;73.75
30682;BME280;17439;48.092;11.842;2023-04-26T06:17:27;95458.09;;;8.60;69.76
30682;BME280;17439;48.092;11.842;2023-04-26T06:19:54;95463.59;;;8.68;73.77
30682;BME280;17439;48.092;11.842;2023-04-26T06:22:21;95459.22;;;8.73;73.82
30682;BME280;17439;48.092;11.842;2023-04-26T06:24:48;95465.13;;;8.75;73.70
30682;BME280;17439;48.092;11.842;2023-04-26T06:27:15;95465.66;;;8.77;73.88
30682;BME280;17439;48.092;11.842;2023-04-26T06:29:45;95460.72;;;8.79;73.63
30682;BME280;17439;48.092;11.842;2023-04-26T06:32:12;95470.16;;;8.81;73.96
30682;BME280;17439;48.092;11.842;2023-04-26T06:34:39;95473.66;;;8.82;73.61
30682;BME280;17439;48.092;11.842;2023-04-26T06:37:06;95473.06;;;8.85;74.15
30682;BME280;17439;48.092;11.842;2023-04-26T06:39:35;95467.06;;;8.88;74.10
30682;BME280;17439;48.092;11.842;2023-04-26T06:42:03;95461.06;;;8.91;74.29
30682;BME280;17439;48.092;11.842;2023-04-26T06:44:47;95463.16;;;8.94;73.53
30682;BME280;17439;48.092;11.842;2023-04-26T06:47:15;95464.84;;;8.90;69.41
30682;BME280;17439;48.092;11.842;2023-04-26T06:49:42;95469.44;;;9.03;74.26
30682;BME280;17439;48.092;11.842;2023-04-26T06:52:09;95473.66;;;9.10;74.42
30682;BME280;17439;48.092;11.842;2023-04-26T06:54:35;95469.75;;;9.16;74.89
30682;BME280;17439;48.092;11.842;2023-04-26T06:57:19;95472.06;;;9.22;74.62
30682;BME280;17439;48.092;11.842;2023-04-26T06:59:45;95471.69;;;9.29;74.52
30682;BME280;17439;48.092;11.842;2023-04-26T07:02:12;95478.06;;;9.33;74.06
30682;BME280;17439;48.092;11.842;2023-04-26T07:04:41;95479.06;;;9.37;73.88
30682;BME280;17439;48.092;11.842;2023-04-26T07:07:08;95477.88;;;9.43;74.10
30682;BME280;17439;48.092;11.842;2023-04-26T07:09:38;95471.03;;;9.46;73.53
30682;BME280;17439;48.092;11.842;2023-04-26T07:12:05;95470.63;;;9.53;73.73
30682;BME280;17439;48.092;11.842;2023-04-26T07:14:32;95469.72;;;9.57;73.51
30682;BME280;17439;48.092;11.842;2023-04-26T07:16:58;95476.31;;;9.65;73.55
30682;BME280;17439;48.092;11.842;2023-04-26T07:19:25;95469.69;;;9.71;73.39
30682;BME280;17439;48.092;11.842;2023-04-26T07:21:52;95468.47;;;9.77;73.60
30682;BME280;17439;48.092;11.842;2023-04-26T07:24:18;95469.47;;;9.82;72.75
30682;BME280;17439;48.092;11.842;2023-04-26T07:26:45;95464.56;;;9.84;73.48
30682;BME280;17439;48.092;11.842;2023-04-26T07:29:12;95466.03;;;9.90;73.54
30682;BME280;17439;48.092;11.842;2023-04-26T07:31:38;95466.09;;;9.98;73.82
30682;BME280;17439;48.092;11.842;2023-04-26T07:34:05;95472.22;;;10.04;72.81
30682;BME280;17439;48.092;11.842;2023-04-26T07:36:32;95471.78;;;10.11;73.64
30682;BME280;17439;48.092;11.842;2023-04-26T07:38:58;95469.47;;;10.18;73.47
30682;BME280;17439;48.092;11.842;2023-04-26T07:41:25;95470.59;;;10.26;73.53
30682;BME280;17439;48.092;11.842;2023-04-26T07:43:52;95466.66;;;10.32;73.29
30682;BME280;17439;48.092;11.842;2023-04-26T07:46:19;95464.38;;;10.39;73.38
30682;BME280;17439;48.092;11.842;2023-04-26T07:48:46;95468.56;;;10.45;73.11
30682;BME280;17439;48.092;11.842;2023-04-26T07:51:13;95472.91;;;10.55;73.98
30682;BME280;17439;48.092;11.842;2023-04-26T07:53:39;95471.69;;;10.61;72.68
30682;BME280;17439;48.092;11.842;2023-04-26T07:56:07;95471.72;;;10.70;72.55
30682;BME280;17439;48.092;11.842;2023-04-26T07:58:35;95473.03;;;10.81;72.90
30682;BME280;17439;48.092;11.842;2023-04-26T08:01:01;95469.09;;;10.87;72.70
30682;BME280;17439;48.092;11.842;2023-04-26T08:03:28;95471.66;;;10.93;71.52
30682;BME280;17439;48.092;11.842;2023-04-26T08:05:55;95467.22;;;10.97;70.84
30682;BME280;17439;48.092;11.842;2023-04-26T08:08:22;95465.19;;;11.02;70.59
30682;BME280;17439;48.092;11.842;2023-04-26T08:10:49;95464.72;;;11.09;71.52
30682;BME280;17439;48.092;11.842;2023-04-26T08:13:15;95464.56;;;11.14;71.34
30682;BME280;17439;48.092;11.842;2023-04-26T08:15:42;95463.63;;;11.19;70.48
30682;BME280;17439;48.092;11.842;2023-04-26T08:18:09;95458.69;;;11.21;70.07
30682;BME280;17439;48.092;11.842;2023-04-26T08:20:35;95467.63;;;11.21;70.26
30682;BME280;17439;48.092;11.842;2023-04-26T08:23:02;95456.94;;;11.25;70.49
30682;BME280;17439;48.092;11.842;2023-04-26T08:25:31;95453.31;;;11.30;70.76
30682;BME280;17439;48.092;11.842;2023-04-26T08:27:59;95458.25;;;11.36;70.73
30682;BME280;17439;48.092;11.842;2023-04-26T08:30:25;95460.19;;;11.44;71.10
30682;BME280;17439;48.092;11.842;2023-04-26T08:32:52;95457.00;;;11.51;70.93
30682;BME280;17439;48.092;11.842;2023-04-26T08:35:19;95458.63;;;11.61;71.02
30682;BME280;17439;48.092;11.842;2023-04-26T08:37:45;95457.34;;;11.67;68.26
30682;BME280;17439;48.092;11.842;2023-04-26T08:40:12;95454.03;;;11.79;69.46
30682;BME280;17439;48.092;11.842;2023-04-26T08:42:42;95454.84;;;11.88;65.27
30682;BME280;17439;48.092;11.842;2023-04-26T08:45:09;95449.75;;;12.04;69.20
30682;BME280;17439;48.092;11.842;2023-04-26T08:50:06;95447.00;;;12.30;68.57
30682;BME280;17439;48.092;11.842;2023-04-26T08:52:34;95452.28;;;12.44;68.52
30682;BME280;17439;48.092;11.842;2023-04-26T08:55:01;95448.56;;;12.58;67.88
30682;BME280;17439;48.092;11.842;2023-04-26T08:57:30;95446.44;;;12.72;65.00
30682;BME280;17439;48.092;11.842;2023-04-26T08:59:57;95442.41;;;12.87;66.44
30682;BME280;17439;48.092;11.842;2023-04-26T09:02:24;95439.78;;;12.99;67.24
30682;BME280;17439;48.092;11.842;2023-04-26T09:04:51;95436.38;;;13.11;66.79
30682;BME280;17439;48.092;11.842;2023-04-26T09:07:31;95441.97;;;13.15;56.26
30682;BME280;17439;48.092;11.842;2023-04-26T09:09:58;95442.41;;;13.25;65.95
30682;BME280;17439;48.092;11.842;2023-04-26T09:12:25;95440.94;;;13.28;66.30
30682;BME280;17439;48.092;11.842;2023-04-26T09:14:52;95437.09;;;13.29;65.65
30682;BME280;17439;48.092;11.842;2023-04-26T09:17:31;95436.16;;;13.34;59.42
30682;BME280;17439;48.092;11.842;2023-04-26T09:19:58;95430.38;;;13.35;63.67
30682;BME280;17439;48.092;11.842;2023-04-26T09:22:36;95436.91;;;13.43;65.04
30682;BME280;17439;48.092;11.842;2023-04-26T09:25:03;95423.88;;;13.49;65.11
30682;BME280;17439;48.092;11.842;2023-04-26T09:27:32;95427.88;;;13.51;63.27
30682;BME280;17439;48.092;11.842;2023-04-26T09:30:24;95420.66;;;13.55;62.77
30682;BME280;17439;48.092;11.842;2023-04-26T09:32:57;95423.50;;;13.59;53.10
30682;BME280;17439;48.092;11.842;2023-04-26T09:35:33;95413.19;;;13.65;60.77
30682;BME280;17439;48.092;11.842;2023-04-26T09:38:02;95422.72;;;13.79;53.84
30682;BME280;17439;48.092;11.842;2023-04-26T09:48:29;95429.53;;;13.43;50.00
30682;BME280;17439;48.092;11.842;2023-04-26T09:50:58;95436.28;;;13.37;56.68
30682;BME280;17439;48.092;11.842;2023-04-26T09:56:08;95418.38;;;13.28;52.14
30682;BME280;17439;48.092;11.842;2023-04-26T09:58:36;95431.22;;;13.18;55.73
30682;BME280;17439;48.092;11.842;2023-04-26T10:01:04;95436.53;;;13.15;54.91
30682;BME280;17439;48.092;11.842;2023-04-26T10:03:33;95434.78;;;13.10;52.32
30682;BME280;17439;48.092;11.842;2023-04-26T10:06:00;95427.47;;;13.02;55.30
30682;BME280;17439;48.092;11.842;2023-04-26T10:08:27;95438.22;;;12.98;57.14
30682;BME280;17439;48.092;11.842;2023-04-26T10:10:54;95437.25;;;12.94;57.11
30682;BME280;17439;48.092;11.842;2023-04-26T10:13:21;95431.81;;;12.94;57.57
30682;BME280;17439;48.092;11.842;2023-04-26T10:15:49;95433.59;;;12.90;57.68
30682;BME280;17439;48.092;11.842;2023-04-26T10:18:15;95435.19;;;12.91;59.19
30682;BME280;17439;48.092;11.842;2023-04-26T10:20:45;95438.03;;;12.95;57.00
30682;BME280;17439;48.092;11.842;2023-04-26T10:23:21;95427.31;;;12.98;55.80
30682;BME280;17439;48.092;11.842;2023-04-26T10:25:48;95424.09;;;13.05;58.14
30682;BME280;17439;48.092;11.842;2023-04-26T10:28:14;95425.50;;;13.11;56.79
30682;BME280;17439;48.092;11.842;2023-04-26T10:33:22;95416.34;;;13.16;58.56
30682;BME280;17439;48.092;11.842;2023-04-26T10:36:04;95415.53;;;13.15;49.81
30682;BME280;17439;48.092;11.842;2023-04-26T10:38:33;95419.16;;;13.28;59.10
30682;BME280;17439;48.092;11.842;2023-04-26T10:43:55;95419.91;;;13.46;58.89
30682;BME280;17439;48.092;11.842;2023-04-26T10:46:36;95417.59;;;13.57;55.77
30682;BME280;17439;48.092;11.842;2023-04-26T10:49:12;95417.41;;;13.62;50.42
30682;BME280;17439;48.092;11.842;2023-04-26T10:51:39;95415.00;;;13.60;54.94
30682;BME280;17439;48.092;11.842;2023-04-26T10:54:06;95403.03;;;13.53;55.06
30682;BME280;17439;48.092;11.842;2023-04-26T10:56:49;95395.72;;;13.45;49.57
30682;BME280;17439;48.092;11.842;2023-04-26T10:59:19;95391.69;;;13.51;52.97
30682;BME280;17439;48.092;11.842;2023-04-26T11:01:51;95392.81;;;13.50;53.17
30682;BME280;17439;48.092;11.842;2023-04-26T11:04:17;95389.63;;;13.48;55.33
30682;BME280;17439;48.092;11.842;2023-04-26T11:06:54;95398.91;;;13.47;52.74
30682;BME280;17439;48.092;11.842;2023-04-26T11:09:37;95387.56;;;13.45;49.80
30682;BME280;17439;48.092;11.842;2023-04-26T11:12:11;95385.75;;;13.49;56.98
30682;BME280;17439;48.092;11.842;2023-04-26T11:14:40;95379.31;;;13.53;57.44
30682;BME280;17439;48.092;11.842;2023-04-26T11:17:07;95378.31;;;13.58;58.14
30682;BME280;17439;48.092;11.842;2023-04-26T11:19:35;95378.13;;;13.63;58.06
30682;BME280;17439;48.092;11.842;2023-04-26T11:22:02;95378.06;;;13.72;58.91
30682;BME280;17439;48.092;11.842;2023-04-26T11:24:33;95367.25;;;13.84;58.15
30682;BME280;17439;48.092;11.842;2023-04-26T11:27:00;95359.19;;;13.88;53.20
30682;BME280;17439;48.092;11.842;2023-04-26T11:29:27;95357.09;;;14.06;54.14
30682;BME280;17439;48.092;11.842;2023-04-26T11:31:55;95352.63;;;14.22;58.13
30682;BME280;17439;48.092;11.842;2023-04-26T11:34:33;95348.53;;;14.28;49.35
30682;BME280;17439;48.092;11.842;2023-04-26T11:37:01;95363.19;;;14.36;55.82
30682;BME280;17439;48.092;11.842;2023-04-26T11:39:30;95352.56;;;14.43;49.87
30682;BME280;17439;48.092;11.842;2023-04-26T11:42:10;95357.00;;;14.48;51.62
30682;BME280;17439;48.092;11.842;2023-04-26T11:44:39;95347.66;;;14.49;54.12
30682;BME280;17439;48.092;11.842;2023-04-26T11:47:06;95351.31;;;14.53;50.27
30682;BME280;17439;48.092;11.842;2023-04-26T11:49:37;95354.78;;;14.62;48.02
30682;BME280;17439;48.092;11.842;2023-04-26T11:52:04;95351.38;;;14.65;49.29
30682;BME280;17439;48.092;11.842;2023-04-26T11:54:36;95347.81;;;14.65;48.36
30682;BME280;17439;48.092;11.842;2023-04-26T11:57:13;95342.84;;;14.67;49.83
30682;BME280;17439;48.092;11.842;2023-04-26T11:59:42;95351.25;;;14.74;51.96
30682;BME280;17439;48.092;11.842;2023-04-26T12:02:10;95350.56;;;14.77;53.39
30682;BME280;17439;48.092;11.842;2023-04-26T12:04:37;95338.19;;;14.80;48.82
30682;BME280;17439;48.092;11.842;2023-04-26T12:07:04;95351.84;;;14.92;48.90
30682;BME280;17439;48.092;11.842;2023-04-26T12:09:31;95345.59;;;15.04;45.69
30682;BME280;17439;48.092;11.842;2023-04-26T12:11:59;95344.13;;;15.07;45.40
30682;BME280;17439;48.092;11.842;2023-04-26T12:17:00;95354.25;;;14.94;43.61
30682;BME280;17439;48.092;11.842;2023-04-26T12:19:31;95364.44;;;14.97;44.49
30682;BME280;17439;48.092;11.842;2023-04-26T12:21:58;95359.22;;;14.92;45.94
30682;BME280;17439;48.092;11.842;2023-04-26T12:24:27;95353.31;;;14.90;46.81
30682;BME280;17439;48.092;11.842;2023-04-26T12:26:54;95341.47;;;14.98;43.89
30682;BME280;17439;48.092;11.842;2023-04-26T12:29:21;95352.84;;;15.00;45.83
30682;BME280;17439;48.092;11.842;2023-04-26T12:31:47;95343.09;;;15.11;42.80
30682;BME280;17439;48.092;11.842;2023-04-26T12:34:14;95350.69;;;15.05;46.43
30682;BME280;17439;48.092;11.842;2023-04-26T12:36:41;95352.41;;;15.10;46.24
30682;BME280;17439;48.092;11.842;2023-04-26T12:39:09;95352.75;;;15.09;48.79
30682;BME280;17439;48.092;11.842;2023-04-26T12:41:35;95340.69;;;15.10;48.99
30682;BME280;17439;48.092;11.842;2023-04-26T12:44:02;95352.50;;;15.26;44.24
30682;BME280;17439;48.092;11.842;2023-04-26T12:46:29;95346.47;;;15.33;44.74
30682;BME280;17439;48.092;11.842;2023-04-26T12:48:56;95337.16;;;15.34;43.94
30682;BME280;17439;48.092;11.842;2023-04-26T12:51:23;95345.00;;;15.35;44.06
30682;BME280;17439;48.092;11.842;2023-04-26T12:53:50;95344.88;;;15.32;45.63
30682;BME280;17439;48.092;11.842;2023-04-26T12:56:16;95331.91;;;15.29;46.05
30682;BME280;17439;48.092;11.842;2023-04-26T12:58:43;95332.72;;;15.29;46.15
30682;BME280;17439;48.092;11.842;2023-04-26T13:01:11;95338.84;;;15.38;42.62
30682;BME280;17439;48.092;11.842;2023-04-26T13:03:39;95340.22;;;15.32;46.13
30682;BME280;17439;48.092;11.842;2023-04-26T13:06:07;95340.56;;;15.18;46.93
30682;BME280;17439;48.092;11.842;2023-04-26T13:08:34;95339.19;;;15.12;49.68
30682;BME280;17439;48.092;11.842;2023-04-26T13:11:00;95335.59;;;15.08;49.23
30682;BME280;17439;48.092;11.842;2023-04-26T13:13:28;95339.34;;;15.03;49.45
30682;BME280;17439;48.092;11.842;2023-04-26T13:16:08;95336.47;;;15.00;50.03
30682;BME280;17439;48.092;11.842;2023-04-26T13:18:35;95320.91;;;15.00;46.67
30682;BME280;17439;48.092;11.842;2023-04-26T13:21:02;95327.84;;;14.98;48.92